createdAt,value
2023-04-17T00:03:02.534Z,12.70
2023-04-17T00:08:07.867Z,12.70
2023-04-17T00:13:11.280Z,12.60
2023-04-17T00:18:14.986Z,12.50
2023-04-17T00:23:19.772Z,12.50
2023-04-17T00:28:23.304Z,12.40
2023-04-17T00:33:26.711Z,12.40
2023-04-17T00:38:31.834Z,12.30
2023-04-17T00:43:35.381Z,12.30
2023-04-17T00:48:41.001Z,12.30
2023-04-17T00:53:46.543Z,12.20
2023-04-17T00:58:50.611Z,12.10
2023-04-17T01:03:55.156Z,11.90
2023-04-17T01:09:00.719Z,11.80
2023-04-17T01:14:04.142Z,11.70
2023-04-17T01:19:08.582Z,11.70
2023-04-17T01:24:13.348Z,11.70
2023-04-17T01:29:16.946Z,11.70
2023-04-17T01:34:20.352Z,11.80
2023-04-17T01:39:25.602Z,11.80
2023-04-17T01:44:29.036Z,11.80
2023-04-17T01:49:32.538Z,11.80
2023-04-17T01:54:37.592Z,11.80
2023-04-17T01:59:41.113Z,11.80
2023-04-17T02:04:44.601Z,11.90
2023-04-17T02:09:49.412Z,11.80
2023-04-17T02:14:52.879Z,11.80
2023-04-17T02:19:56.574Z,11.70
2023-04-17T02:25:01.342Z,11.70
2023-04-17T02:30:05.582Z,11.60
2023-04-17T02:35:10.058Z,11.60
2023-04-17T02:40:15.986Z,11.60
2023-04-17T02:45:19.406Z,11.60
2023-04-17T02:50:22.843Z,11.60
2023-04-17T02:55:27.650Z,11.80
2023-04-17T03:00:31.191Z,11.80
2023-04-17T03:05:34.702Z,11.90
2023-04-17T03:10:39.491Z,11.90
2023-04-17T03:15:43.356Z,11.90
2023-04-17T03:20:46.890Z,11.90
2023-04-17T03:25:52.391Z,11.80
2023-04-17T03:30:58.003Z,11.80
2023-04-17T03:36:01.489Z,11.90
2023-04-17T03:41:07.054Z,11.80
2023-04-17T03:46:10.818Z,11.70
2023-04-17T03:51:14.545Z,11.70
2023-04-17T03:56:19.581Z,11.70
2023-04-17T04:01:23.633Z,11.60
2023-04-17T04:06:29.976Z,11.60
2023-04-17T04:11:34.818Z,11.60
2023-04-17T04:16:38.516Z,11.60
2023-04-17T04:21:43.596Z,11.60
2023-04-17T04:26:49.768Z,11.60
2023-04-17T04:31:53.423Z,11.60
2023-04-17T04:36:56.937Z,11.60
2023-04-17T04:42:06.759Z,11.60
2023-04-17T04:47:10.429Z,11.70
2023-04-17T04:52:13.934Z,11.70
2023-04-17T04:57:18.750Z,11.70
2023-04-17T05:02:22.380Z,11.70
2023-04-17T05:07:26.033Z,11.60
2023-04-17T05:12:30.815Z,11.70
2023-04-17T05:17:34.551Z,11.70
2023-04-17T05:22:38.012Z,11.80
2023-04-17T05:27:42.841Z,11.80
2023-04-17T05:32:46.669Z,11.80
2023-04-17T05:37:50.232Z,11.80
2023-04-17T05:42:55.236Z,11.80
2023-04-17T05:47:58.715Z,11.80
2023-04-17T05:53:02.389Z,11.70
2023-04-17T05:58:16.870Z,11.70
2023-04-17T06:03:27.258Z,11.70
2023-04-17T06:08:30.889Z,11.90
2023-04-17T06:13:35.635Z,12.00
2023-04-17T06:18:38.990Z,12.10
2023-04-17T06:23:42.436Z,12.20
2023-04-17T06:28:47.173Z,12.20
2023-04-17T06:33:51.158Z,12.30
2023-04-17T06:38:54.613Z,12.30
2023-04-17T06:43:59.692Z,12.30
2023-04-17T06:49:03.109Z,12.40
2023-04-17T06:54:06.580Z,12.50
2023-04-17T06:59:11.737Z,12.50
2023-04-17T07:04:17.935Z,12.50
2023-04-17T07:09:21.731Z,12.60
2023-04-17T07:14:26.505Z,12.70
2023-04-17T07:19:30.406Z,12.90
2023-04-17T07:24:35.100Z,12.80
2023-04-17T07:29:39.946Z,12.90
2023-04-17T07:34:43.485Z,12.90
2023-04-17T07:39:50.488Z,13.00
2023-04-17T07:44:55.322Z,13.10
2023-04-17T07:49:58.956Z,13.40
2023-04-17T07:55:02.345Z,13.50
2023-04-17T08:00:10.530Z,13.60
2023-04-17T08:05:14.024Z,13.70
2023-04-17T08:10:17.772Z,13.80
2023-04-17T08:15:23.075Z,13.80
2023-04-17T08:20:27.277Z,13.80
2023-04-17T08:25:30.704Z,13.80
2023-04-17T08:30:35.743Z,13.80
2023-04-17T08:35:39.140Z,14.00
2023-04-17T08:40:46.588Z,13.90
2023-04-17T08:45:55.641Z,13.80
2023-04-17T08:50:59.479Z,14.00
2023-04-17T08:56:08.340Z,14.20
2023-04-17T09:01:15.862Z,14.50
2023-04-17T09:06:19.868Z,14.90
2023-04-17T09:11:23.293Z,15.00
2023-04-17T09:16:29.259Z,15.00
2023-04-17T09:21:32.680Z,15.00
2023-04-17T09:26:37.121Z,14.80
2023-04-17T09:31:43.526Z,15.00
2023-04-17T09:36:47.867Z,15.00
2023-04-17T09:41:52.236Z,15.10
2023-04-17T09:46:57.814Z,15.00
2023-04-17T09:52:02.010Z,14.80
2023-04-17T09:57:08.569Z,14.70
2023-04-17T10:02:14.818Z,14.80
2023-04-17T10:07:18.783Z,14.90
2023-04-17T10:12:22.669Z,15.20
2023-04-17T10:17:31.652Z,15.10
2023-04-17T10:22:41.136Z,15.30
2023-04-17T10:27:46.282Z,15.20
2023-04-17T10:33:25.717Z,15.20
2023-04-17T10:38:36.697Z,15.20
2023-04-17T10:43:45.951Z,15.20
2023-04-17T10:48:52.978Z,15.60
2023-04-17T10:53:57.704Z,15.80
2023-04-17T10:59:03.479Z,16.00
2023-04-17T11:04:09.430Z,16.00
2023-04-17T11:09:13.039Z,16.00
2023-04-17T11:14:17.965Z,16.00
2023-04-17T11:19:24.410Z,16.20
2023-04-17T11:24:29.570Z,16.40
2023-04-17T11:29:33.246Z,16.60
2023-04-17T11:34:38.656Z,16.20
2023-04-17T11:39:43.916Z,15.90
2023-04-17T11:44:47.611Z,16.00
2023-04-17T11:49:53.210Z,16.20
2023-04-17T11:54:59.363Z,16.30
2023-04-17T12:00:14.079Z,16.40
2023-04-17T12:05:19.397Z,16.60
2023-04-17T12:10:22.855Z,16.80
2023-04-17T12:15:27.149Z,17.00
2023-04-17T12:20:32.364Z,17.20
2023-04-17T12:25:35.962Z,17.40
2023-04-17T12:30:40.620Z,17.60
2023-04-17T12:35:45.624Z,17.70
2023-04-17T12:40:49.007Z,17.50
2023-04-17T12:45:54.096Z,17.60
2023-04-17T12:50:59.465Z,17.70
2023-04-17T12:56:03.941Z,17.90
2023-04-17T13:01:07.428Z,17.90
2023-04-17T13:06:12.387Z,18.20
2023-04-17T13:11:16.270Z,18.50
2023-04-17T13:16:19.689Z,18.40
2023-04-17T13:21:24.390Z,18.40
2023-04-17T13:26:27.821Z,18.20
2023-04-17T13:31:31.324Z,18.20
2023-04-17T13:36:36.255Z,18.40
2023-04-17T13:41:39.955Z,18.20
2023-04-17T13:46:44.174Z,18.20
2023-04-17T13:51:49.067Z,18.40
2023-04-17T13:56:54.270Z,18.30
2023-04-17T14:01:57.910Z,18.50
2023-04-17T14:07:02.809Z,18.60
2023-04-17T14:12:06.482Z,18.80
2023-04-17T14:17:09.908Z,18.60
2023-04-17T14:22:14.715Z,18.60
2023-04-17T14:27:18.140Z,18.50
2023-04-17T14:32:21.602Z,18.40
2023-04-17T14:37:26.464Z,18.00
2023-04-17T14:42:29.923Z,17.80
2023-04-17T14:47:34.546Z,17.70
2023-04-17T14:52:39.674Z,17.50
2023-04-17T14:57:43.622Z,17.50
2023-04-17T15:02:47.431Z,17.60
2023-04-17T15:07:52.384Z,17.70
2023-04-17T15:13:00.190Z,17.70
2023-04-17T15:18:03.861Z,18.00
2023-04-17T15:23:08.611Z,18.40
2023-04-17T15:28:12.492Z,19.30
2023-04-17T15:33:16.034Z,19.80
2023-04-17T15:38:20.935Z,20.30
2023-04-17T15:43:24.507Z,21.80
2023-04-17T15:48:27.923Z,22.50
2023-04-17T15:53:34.064Z,22.40
2023-04-17T15:58:37.471Z,21.40
2023-04-17T16:03:42.990Z,20.40
2023-04-17T16:08:48.044Z,19.30
2023-04-17T16:13:51.406Z,18.40
2023-04-17T16:18:54.799Z,17.80
2023-04-17T16:23:59.649Z,17.20
2023-04-17T16:29:03.176Z,17.00
2023-04-17T16:34:06.559Z,16.70
2023-04-17T16:39:11.517Z,16.40
2023-04-17T16:44:15.196Z,16.20
2023-04-17T16:49:18.671Z,16.10
2023-04-17T16:54:24.466Z,16.00
2023-04-17T16:59:28.134Z,15.90
2023-04-17T17:04:31.841Z,15.90
2023-04-17T17:09:37.254Z,15.80
2023-04-17T17:14:40.918Z,15.80
2023-04-17T17:19:47.386Z,15.70
2023-04-17T17:24:52.204Z,15.60
2023-04-17T17:29:57.841Z,15.60
2023-04-17T17:35:02.783Z,15.60
2023-04-17T17:40:09.528Z,15.70
2023-04-17T17:45:13.231Z,15.70
2023-04-17T17:50:16.746Z,15.80
2023-04-17T17:55:22.259Z,15.90
2023-04-17T18:00:25.891Z,15.90
2023-04-17T18:05:29.385Z,15.80
2023-04-17T18:10:34.673Z,15.70
2023-04-17T18:15:38.076Z,15.60
2023-04-17T18:20:41.493Z,15.40
2023-04-17T18:25:46.293Z,15.30
2023-04-17T18:30:49.804Z,15.20
2023-04-17T18:35:53.342Z,15.10
2023-04-17T18:40:59.477Z,14.90
2023-04-17T18:46:04.584Z,14.90
2023-04-17T18:51:12.552Z,14.80
2023-04-17T18:56:18.000Z,14.60
2023-04-17T19:01:21.489Z,14.50
2023-04-17T19:06:25.019Z,14.40
2023-04-17T19:11:30.992Z,14.30
2023-04-17T19:16:34.822Z,14.30
2023-04-17T19:21:38.396Z,14.30
2023-04-17T19:26:43.423Z,14.20
2023-04-17T19:31:46.860Z,14.20
2023-04-17T19:36:50.379Z,14.10
2023-04-17T19:41:55.498Z,14.00
2023-04-17T19:46:59.029Z,13.90
2023-04-17T19:52:02.424Z,14.00
2023-04-17T19:57:07.809Z,13.90
2023-04-17T20:02:12.389Z,13.80
2023-04-17T20:07:16.092Z,13.70
2023-04-17T20:12:21.119Z,13.60
2023-04-17T20:17:25.219Z,13.40
2023-04-17T20:22:28.643Z,13.40
2023-04-17T20:27:33.402Z,13.50
2023-04-17T20:32:36.849Z,13.30
2023-04-17T20:37:44.300Z,13.20
2023-04-17T20:42:49.782Z,13.10
2023-04-17T20:47:56.887Z,13.00
2023-04-17T20:53:00.891Z,12.90
2023-04-17T20:58:06.510Z,12.90
2023-04-17T21:03:10.484Z,12.90
2023-04-17T21:08:13.976Z,12.80
2023-04-17T21:13:19.333Z,12.80
2023-04-17T21:18:22.772Z,12.70
2023-04-17T21:23:26.564Z,12.70
2023-04-17T21:28:31.392Z,12.60
2023-04-17T21:33:36.565Z,12.60
2023-04-17T21:38:40.057Z,12.60
2023-04-17T21:43:44.857Z,12.60
2023-04-17T21:48:48.269Z,12.60
2023-04-17T21:53:51.711Z,12.50
2023-04-17T21:58:57.646Z,12.30
2023-04-17T22:04:01.146Z,12.30
2023-04-17T22:09:05.207Z,12.30
2023-04-17T22:14:10.041Z,12.30
2023-04-17T22:19:13.501Z,12.40
2023-04-17T22:25:11.934Z,12.40
2023-04-17T22:31:10.454Z,12.30
2023-04-17T22:37:08.739Z,12.20
2023-04-17T22:43:07.323Z,12.20
2023-04-17T22:49:05.790Z,12.00
2023-04-17T22:55:04.247Z,12.00
2023-04-17T23:01:02.584Z,12.00
2023-04-17T23:07:00.850Z,11.90
2023-04-17T23:12:07.128Z,11.80
2023-04-17T23:17:10.661Z,11.80
2023-04-17T23:22:14.069Z,11.80
2023-04-17T23:27:18.818Z,11.80
2023-04-17T23:32:22.700Z,11.80
2023-04-17T23:37:26.579Z,11.70
2023-04-17T23:42:31.307Z,11.70
2023-04-17T23:47:34.733Z,11.70
2023-04-17T23:52:38.459Z,11.70
2023-04-17T23:57:43.521Z,11.70
